createdAt,value
2018-12-04T00:00:26.471Z,0.57
2018-12-04T00:02:55.114Z,0.40
2018-12-04T00:05:25.112Z,1.00
2018-12-04T00:07:53.839Z,0.27
2018-12-04T00:10:22.524Z,0.97
2018-12-04T00:12:51.181Z,0.67
2018-12-04T00:15:19.966Z,0.43
2018-12-04T00:17:48.642Z,1.47
2018-12-04T00:20:17.328Z,0.20
2018-12-04T00:22:46.063Z,0.43
2018-12-04T00:25:14.780Z,0.30
2018-12-04T00:27:43.455Z,1.77
2018-12-04T00:30:12.098Z,0.60
2018-12-04T00:32:40.769Z,0.50
2018-12-04T00:35:09.412Z,1.27
2018-12-04T00:37:38.092Z,0.40
2018-12-04T00:40:07.614Z,0.63
2018-12-04T00:42:36.281Z,0.60
2018-12-04T00:45:05.051Z,1.53
2018-12-04T00:47:33.722Z,0.57
2018-12-04T00:50:02.367Z,0.53
2018-12-04T00:52:31.031Z,0.50
2018-12-04T00:55:40.166Z,0.53
2018-12-04T00:58:08.466Z,0.63
2018-12-04T01:00:36.736Z,0.40
2018-12-04T01:03:05.021Z,0.43
2018-12-04T01:05:33.314Z,0.30
2018-12-04T01:08:01.622Z,1.33
2018-12-04T01:10:30.006Z,1.60
2018-12-04T01:12:58.317Z,1.70
2018-12-04T01:15:26.605Z,1.27
2018-12-04T01:17:54.914Z,2.37
2018-12-04T01:20:23.177Z,0.40
2018-12-04T01:22:52.885Z,1.90
2018-12-04T01:25:21.192Z,0.30
2018-12-04T01:27:49.501Z,0.50
2018-12-04T01:30:17.776Z,0.57
2018-12-04T01:32:46.077Z,0.50
2018-12-04T01:35:14.362Z,1.50
2018-12-04T01:37:42.683Z,1.13
2018-12-04T01:40:11.192Z,0.50
2018-12-04T01:42:39.480Z,0.90
2018-12-04T01:45:07.785Z,0.40
2018-12-04T01:47:36.077Z,1.60
2018-12-04T01:50:04.981Z,1.10
2018-12-04T01:52:33.294Z,2.00
2018-12-04T01:55:01.569Z,1.43
2018-12-04T01:57:29.907Z,1.37
2018-12-04T01:59:58.287Z,1.17
2018-12-04T02:02:26.606Z,1.70
2018-12-04T02:04:54.878Z,2.73
2018-12-04T02:07:23.314Z,2.17
2018-12-04T02:09:51.606Z,0.73
2018-12-04T02:12:19.916Z,0.40
2018-12-04T02:14:48.189Z,0.97
2018-12-04T02:17:16.505Z,1.30
2018-12-04T02:19:44.781Z,0.20
2018-12-04T02:22:13.073Z,0.90
2018-12-04T02:24:41.398Z,0.40
2018-12-04T02:27:09.825Z,2.70
2018-12-04T02:29:38.100Z,0.90
2018-12-04T02:32:06.396Z,1.27
2018-12-04T02:34:34.669Z,1.87
2018-12-04T02:37:02.953Z,2.67
2018-12-04T02:39:31.222Z,2.77
2018-12-04T02:41:59.517Z,2.43
2018-12-04T02:44:27.781Z,1.43
2018-12-04T02:46:56.099Z,0.90
2018-12-04T02:49:24.369Z,0.73
2018-12-04T02:51:52.649Z,2.17
2018-12-04T02:54:20.946Z,0.80
2018-12-04T02:56:49.225Z,1.07
2018-12-04T02:59:17.516Z,0.37
2018-12-04T03:01:45.797Z,0.97
2018-12-04T03:04:14.254Z,0.90
2018-12-04T03:06:42.514Z,1.97
2018-12-04T03:09:10.816Z,0.37
2018-12-04T03:11:39.091Z,0.70
2018-12-04T03:14:07.383Z,1.83
2018-12-04T03:16:35.661Z,1.47
2018-12-04T03:19:03.949Z,1.00
2018-12-04T03:21:32.221Z,1.00
2018-12-04T03:24:00.537Z,0.47
2018-12-04T03:26:28.824Z,1.03
2018-12-04T03:28:57.125Z,0.57
2018-12-04T03:31:25.391Z,0.60
2018-12-04T03:33:53.682Z,3.20
2018-12-04T03:36:21.962Z,1.17
2018-12-04T03:38:50.284Z,3.23
2018-12-04T03:41:18.601Z,0.40
2018-12-04T03:43:46.898Z,0.83
2018-12-04T03:46:15.183Z,1.70
2018-12-04T03:48:43.513Z,1.47
2018-12-04T03:51:11.778Z,1.53
2018-12-04T03:53:40.082Z,1.03
2018-12-04T03:56:08.443Z,1.23
2018-12-04T03:58:36.749Z,1.40
2018-12-04T04:01:05.053Z,0.93
2018-12-04T04:03:33.340Z,3.20
2018-12-04T04:06:01.619Z,1.17
2018-12-04T04:08:29.914Z,0.87
2018-12-04T04:10:58.296Z,1.90
2018-12-04T04:13:26.624Z,0.73
2018-12-04T04:15:54.913Z,2.30
2018-12-04T04:18:23.326Z,1.73
2018-12-04T04:20:51.609Z,0.50
2018-12-04T04:23:19.905Z,0.83
2018-12-04T04:25:48.208Z,1.43
2018-12-04T04:28:16.494Z,0.50
2018-12-04T04:30:45.044Z,0.93
2018-12-04T04:33:13.344Z,1.03
2018-12-04T04:35:41.621Z,0.83
2018-12-04T04:38:09.939Z,1.00
2018-12-04T04:40:38.204Z,1.27
2018-12-04T04:43:06.508Z,2.80
2018-12-04T04:45:34.815Z,0.73
2018-12-04T04:48:03.350Z,0.77
2018-12-04T04:50:31.654Z,1.33
2018-12-04T04:53:00.179Z,1.43
2018-12-04T04:55:28.580Z,0.93
2018-12-04T04:57:56.855Z,0.67
2018-12-04T05:00:25.149Z,0.63
2018-12-04T05:02:53.506Z,2.73
2018-12-04T05:05:21.806Z,0.90
2018-12-04T05:07:50.077Z,0.67
2018-12-04T05:10:18.464Z,0.93
2018-12-04T05:12:46.736Z,0.30
2018-12-04T05:15:15.111Z,0.67
2018-12-04T05:17:43.638Z,0.33
2018-12-04T05:20:11.948Z,0.93
2018-12-04T05:22:40.237Z,3.23
2018-12-04T05:25:08.521Z,2.50
2018-12-04T05:27:36.783Z,0.80
2018-12-04T05:30:06.545Z,0.27
2018-12-04T05:32:34.838Z,1.37
2018-12-04T05:35:03.157Z,0.90
2018-12-04T05:37:31.429Z,0.80
2018-12-04T05:39:59.720Z,0.90
2018-12-04T05:42:27.978Z,1.77
2018-12-04T05:44:56.342Z,1.23
2018-12-04T05:47:24.629Z,2.20
2018-12-04T05:49:52.932Z,1.10
2018-12-04T05:52:21.265Z,1.07
2018-12-04T05:54:49.557Z,1.90
2018-12-04T05:57:18.014Z,0.53
2018-12-04T05:59:46.397Z,1.63
2018-12-04T06:02:14.707Z,0.50
2018-12-04T06:04:42.996Z,1.40
2018-12-04T06:07:11.262Z,1.17
2018-12-04T06:09:39.558Z,1.93
2018-12-04T06:12:07.812Z,1.30
2018-12-04T06:14:36.099Z,0.43
2018-12-04T06:17:04.373Z,2.13
2018-12-04T06:19:32.657Z,1.03
2018-12-04T06:22:00.920Z,2.70
2018-12-04T06:24:29.259Z,3.03
2018-12-04T06:26:57.532Z,1.53
2018-12-04T06:29:25.836Z,1.07
2018-12-04T06:31:54.130Z,0.37
2018-12-04T06:34:22.424Z,1.67
2018-12-04T06:36:50.697Z,0.70
2018-12-04T06:39:18.982Z,0.97
2018-12-04T06:41:47.244Z,1.70
2018-12-04T06:44:15.688Z,1.27
2018-12-04T06:46:43.963Z,2.57
2018-12-04T06:49:12.220Z,1.93
2018-12-04T06:51:40.674Z,1.00
2018-12-04T06:54:09.207Z,0.80
2018-12-04T06:56:37.552Z,0.90
2018-12-04T06:59:05.922Z,1.03
2018-12-04T07:01:34.264Z,1.40
2018-12-04T07:04:02.756Z,1.87
2018-12-04T07:06:31.110Z,1.23
2018-12-04T07:08:59.457Z,0.93
2018-12-04T07:11:27.762Z,2.53
2018-12-04T07:13:56.111Z,0.67
2018-12-04T07:16:24.396Z,1.47
2018-12-04T07:18:52.657Z,1.47
2018-12-04T07:21:20.961Z,1.70
2018-12-04T07:23:49.220Z,3.13
2018-12-04T07:26:17.514Z,1.43
2018-12-04T07:28:45.800Z,1.97
2018-12-04T07:31:14.126Z,0.67
2018-12-04T07:33:42.589Z,1.73
2018-12-04T07:36:11.001Z,1.47
2018-12-04T07:38:39.373Z,1.13
2018-12-04T07:41:07.689Z,1.23
2018-12-04T07:43:36.029Z,0.53
2018-12-04T07:46:04.316Z,1.47
2018-12-04T07:48:32.613Z,0.87
2018-12-04T07:51:00.916Z,0.40
2018-12-04T07:53:29.185Z,0.73
2018-12-04T07:55:57.528Z,1.30
2018-12-04T07:58:25.800Z,3.20
2018-12-04T08:00:54.099Z,0.63
2018-12-04T08:03:22.379Z,0.80
2018-12-04T08:05:50.673Z,0.60
2018-12-04T08:08:18.941Z,0.43
2018-12-04T08:10:47.233Z,3.93
2018-12-04T08:13:15.508Z,1.27
2018-12-04T08:15:43.826Z,0.63
2018-12-04T08:18:12.090Z,0.80
2018-12-04T08:20:40.382Z,3.07
2018-12-04T08:23:08.653Z,1.13
2018-12-04T08:25:36.951Z,0.90
2018-12-04T08:28:05.383Z,1.27
2018-12-04T08:30:33.713Z,1.33
2018-12-04T08:33:02.869Z,2.23
2018-12-04T08:35:31.156Z,2.37
2018-12-04T08:37:59.426Z,0.90
2018-12-04T08:40:27.712Z,1.33
2018-12-04T08:42:56.058Z,1.50
2018-12-04T08:45:24.328Z,1.77
2018-12-04T08:47:52.627Z,1.30
2018-12-04T08:50:20.901Z,1.87
2018-12-04T08:52:49.323Z,2.00
2018-12-04T08:55:17.641Z,0.90
2018-12-04T08:57:46.013Z,2.27
2018-12-04T09:00:14.277Z,2.37
2018-12-04T09:02:42.574Z,2.73
2018-12-04T09:05:10.970Z,1.50
2018-12-04T09:07:39.499Z,0.87
2018-12-04T09:10:07.765Z,1.20
2018-12-04T09:12:36.074Z,2.23
2018-12-04T09:15:04.766Z,1.10
2018-12-04T09:17:33.420Z,1.80
2018-12-04T09:20:01.719Z,0.87
2018-12-04T09:22:30.347Z,1.50
2018-12-04T09:24:58.691Z,0.80
2018-12-04T09:27:27.165Z,1.20
2018-12-04T09:29:55.728Z,1.30
2018-12-04T09:32:24.304Z,1.23
2018-12-04T09:34:52.576Z,2.00
2018-12-04T09:37:21.016Z,1.63
2018-12-04T09:39:49.352Z,2.47
2018-12-04T09:42:17.808Z,1.83
2018-12-04T09:44:46.112Z,2.77
2018-12-04T09:47:14.466Z,1.10
2018-12-04T09:49:42.767Z,2.37
2018-12-04T09:52:11.217Z,2.70
2018-12-04T09:54:39.501Z,1.37
2018-12-04T09:57:07.808Z,2.03
2018-12-04T09:59:39.488Z,2.03
2018-12-04T10:02:06.488Z,2.80
2018-12-04T10:04:34.749Z,0.93
2018-12-04T10:07:03.241Z,1.47
2018-12-04T10:09:31.524Z,3.23
2018-12-04T10:11:59.819Z,1.50
2018-12-04T10:14:28.085Z,2.27
2018-12-04T10:16:56.553Z,2.20
2018-12-04T10:19:24.820Z,2.23
2018-12-04T10:21:53.200Z,2.37
2018-12-04T10:24:21.456Z,0.93
2018-12-04T10:26:51.715Z,1.00
2018-12-04T10:29:20.073Z,0.83
2018-12-04T10:31:48.384Z,3.20
2018-12-04T10:34:16.814Z,2.80
2018-12-04T10:36:45.104Z,4.40
2018-12-04T10:39:13.562Z,1.93
2018-12-04T10:41:41.939Z,1.10
2018-12-04T10:44:10.233Z,1.17
2018-12-04T10:46:38.521Z,2.07
2018-12-04T10:49:06.773Z,0.93
2018-12-04T10:51:35.060Z,2.80
2018-12-04T10:54:03.352Z,1.30
2018-12-04T10:56:31.722Z,5.27
2018-12-04T10:59:00.020Z,2.20
2018-12-04T11:01:33.766Z,0.50
2018-12-04T11:04:02.025Z,0.50
2018-12-04T11:06:30.396Z,1.40
2018-12-04T11:08:58.803Z,1.07
2018-12-04T11:11:27.124Z,1.57
2018-12-04T11:13:55.394Z,1.33
2018-12-04T11:16:23.674Z,1.37
2018-12-04T11:18:51.987Z,1.70
2018-12-04T11:21:20.263Z,1.47
2018-12-04T11:23:48.585Z,1.07
2018-12-04T11:26:17.025Z,1.60
2018-12-04T11:28:45.333Z,1.07
2018-12-04T11:31:13.997Z,1.80
2018-12-04T11:33:42.440Z,1.07
2018-12-04T11:36:10.772Z,1.90
2018-12-04T11:38:39.150Z,1.83
2018-12-04T11:41:07.408Z,1.60
2018-12-04T11:43:35.712Z,0.60
2018-12-04T11:46:03.976Z,0.80
2018-12-04T11:48:32.330Z,0.70
2018-12-04T11:51:00.657Z,1.87
2018-12-04T11:53:29.253Z,2.33
2018-12-04T11:55:57.703Z,1.00
2018-12-04T11:58:26.125Z,1.73
2018-12-04T12:00:54.380Z,1.23
2018-12-04T12:03:22.729Z,0.70
2018-12-04T12:05:51.069Z,1.17
2018-12-04T12:08:19.357Z,1.70
2018-12-04T12:10:47.660Z,0.60
2018-12-04T12:13:16.042Z,2.90
2018-12-04T12:15:44.304Z,2.13
2018-12-04T12:18:12.684Z,2.70
2018-12-04T12:20:41.062Z,1.10
2018-12-04T12:23:09.440Z,0.77
2018-12-04T12:25:37.706Z,1.83
2018-12-04T12:28:06.005Z,1.00
2018-12-04T12:30:34.373Z,0.83
2018-12-04T12:33:02.667Z,1.00
2018-12-04T12:35:30.991Z,2.73
2018-12-04T12:37:59.313Z,1.10
2018-12-04T12:40:27.575Z,1.03
2018-12-04T12:42:55.873Z,0.93
2018-12-04T12:45:24.217Z,0.80
2018-12-04T12:47:52.536Z,1.50
2018-12-04T12:50:20.875Z,1.03
2018-12-04T12:52:49.168Z,0.63
2018-12-04T12:55:17.448Z,1.33
2018-12-04T12:57:45.747Z,1.67
2018-12-04T13:00:14.175Z,0.70
2018-12-04T13:02:42.458Z,2.60
2018-12-04T13:05:10.814Z,1.47
2018-12-04T13:07:42.261Z,2.67
2018-12-04T13:10:10.541Z,0.73
2018-12-04T13:12:38.829Z,1.53
2018-12-04T13:15:07.247Z,0.70
2018-12-04T13:17:35.679Z,0.90
2018-12-04T13:20:04.460Z,2.50
2018-12-04T13:22:32.752Z,0.60
2018-12-04T13:25:01.102Z,1.43
2018-12-04T13:27:29.407Z,1.50
2018-12-04T13:29:57.703Z,1.53
2018-12-04T13:32:25.985Z,2.30
2018-12-04T13:34:54.329Z,3.43
2018-12-04T13:37:22.586Z,2.50
2018-12-04T13:39:51.151Z,3.10
2018-12-04T13:42:19.429Z,1.17
2018-12-04T13:44:47.722Z,1.77
2018-12-04T13:47:16.280Z,1.00
2018-12-04T13:49:44.670Z,0.70
2018-12-04T13:52:12.944Z,2.97
2018-12-04T13:54:41.257Z,2.77
2018-12-04T13:57:09.815Z,1.03
2018-12-04T13:59:38.335Z,3.83
2018-12-04T14:02:06.699Z,1.03
2018-12-04T14:04:35.079Z,1.93
2018-12-04T14:07:03.346Z,1.97
2018-12-04T14:09:31.648Z,2.17
2018-12-04T14:12:00.183Z,3.70
2018-12-04T14:14:28.556Z,1.83
2018-12-04T14:16:56.830Z,1.43
2018-12-04T14:19:25.110Z,1.30
2018-12-04T14:21:53.397Z,3.50
2018-12-04T14:24:21.958Z,2.13
2018-12-04T14:26:50.616Z,1.50
2018-12-04T14:29:19.146Z,2.00
2018-12-04T14:31:47.486Z,4.67
2018-12-04T14:34:16.181Z,4.63
2018-12-04T14:36:44.480Z,1.60
2018-12-04T14:39:13.050Z,2.50
2018-12-04T14:41:41.583Z,4.90
2018-12-04T14:44:09.901Z,2.77
2018-12-04T14:46:38.436Z,1.30
2018-12-04T14:49:06.737Z,3.10
2018-12-04T14:51:35.028Z,1.97
2018-12-04T14:54:03.567Z,2.60
2018-12-04T14:56:31.847Z,2.80
2018-12-04T14:59:00.157Z,3.83
2018-12-04T15:01:28.468Z,4.37
2018-12-04T15:03:57.060Z,3.90
2018-12-04T15:06:25.577Z,1.80
2018-12-04T15:08:53.866Z,1.60
2018-12-04T15:11:22.145Z,4.13
2018-12-04T15:13:50.714Z,2.73
2018-12-04T15:16:19.011Z,2.57
2018-12-04T15:18:47.561Z,6.07
2018-12-04T15:21:15.854Z,5.13
2018-12-04T15:23:44.371Z,3.33
2018-12-04T15:26:12.935Z,2.17
2018-12-04T15:28:41.454Z,2.57
2018-12-04T15:31:09.938Z,3.40
2018-12-04T15:33:38.427Z,3.27
2018-12-04T15:36:06.773Z,3.27
2018-12-04T15:38:35.051Z,3.97
2018-12-04T15:41:03.345Z,3.97
2018-12-04T15:43:31.609Z,3.93
2018-12-04T15:45:59.930Z,2.90
2018-12-04T15:48:28.428Z,3.33
2018-12-04T15:50:59.817Z,3.17
2018-12-04T15:53:27.008Z,3.33
2018-12-04T15:55:55.536Z,3.73
2018-12-04T15:58:23.804Z,2.77
2018-12-04T16:00:52.155Z,4.00
2018-12-04T16:03:23.056Z,9.53
2018-12-04T16:05:51.380Z,2.87
2018-12-04T16:08:19.674Z,2.57
2018-12-04T16:10:47.975Z,3.00
2018-12-04T16:13:16.792Z,3.87
2018-12-04T16:15:45.329Z,3.20
2018-12-04T16:18:13.595Z,3.70
2018-12-04T16:20:41.885Z,4.73
2018-12-04T16:23:10.423Z,7.73
2018-12-04T16:25:38.705Z,3.63
2018-12-04T16:28:07.001Z,3.10
2018-12-04T16:30:35.380Z,2.03
2018-12-04T16:33:03.656Z,2.50
2018-12-04T16:35:31.947Z,2.87
2018-12-04T16:38:00.224Z,2.73
2018-12-04T16:40:28.582Z,4.23
2018-12-04T16:42:56.839Z,3.53
2018-12-04T16:45:25.133Z,3.70
2018-12-04T16:47:53.397Z,4.00
2018-12-04T16:50:21.785Z,3.57
2018-12-04T16:52:50.049Z,3.07
2018-12-04T16:55:18.339Z,3.50
2018-12-04T16:57:46.609Z,2.97
2018-12-04T17:00:14.979Z,4.47
2018-12-04T17:02:43.322Z,4.20
2018-12-04T17:05:11.613Z,3.57
2018-12-04T17:07:39.873Z,4.40
2018-12-04T17:10:08.192Z,5.37
2018-12-04T17:12:36.570Z,5.17
2018-12-04T17:15:05.380Z,4.33
2018-12-04T17:17:33.652Z,5.50
2018-12-04T17:20:01.947Z,5.13
2018-12-04T17:22:30.231Z,6.00
2018-12-04T17:24:58.537Z,3.17
2018-12-04T17:27:26.833Z,4.20
2018-12-04T17:29:55.104Z,3.93
2018-12-04T17:32:23.382Z,7.70
2018-12-04T17:34:51.732Z,4.90
2018-12-04T17:37:20.150Z,7.00
2018-12-04T17:39:48.414Z,4.20
2018-12-04T17:42:17.017Z,4.10
2018-12-04T17:44:45.290Z,4.60
2018-12-04T17:47:13.591Z,3.27
2018-12-04T17:49:41.958Z,3.77
2018-12-04T17:52:10.481Z,4.87
2018-12-04T17:54:38.737Z,5.57
2018-12-04T17:57:07.052Z,1.83
2018-12-04T17:59:35.309Z,4.47
2018-12-04T18:02:03.601Z,4.87
2018-12-04T18:04:31.897Z,3.10
2018-12-04T18:07:00.206Z,3.17
2018-12-04T18:09:28.657Z,2.00
2018-12-04T18:11:56.954Z,4.67
2018-12-04T18:14:25.240Z,9.00
2018-12-04T18:16:53.692Z,9.77
2018-12-04T18:19:22.057Z,2.67
2018-12-04T18:21:50.593Z,9.07
2018-12-04T18:24:18.853Z,8.80
2018-12-04T18:26:47.173Z,7.10
2018-12-04T18:29:15.452Z,4.63
2018-12-04T18:31:43.824Z,34.33
2018-12-04T18:34:12.088Z,6.80
2018-12-04T18:36:40.379Z,5.90
2018-12-04T18:39:08.642Z,6.07
2018-12-04T18:41:36.930Z,3.60
2018-12-04T18:44:05.206Z,3.00
2018-12-04T18:46:33.569Z,5.53
2018-12-04T18:49:01.927Z,2.37
2018-12-04T18:51:30.221Z,2.40
2018-12-04T18:53:58.495Z,3.87
2018-12-04T18:56:26.981Z,2.93
2018-12-04T18:58:55.255Z,1.97
2018-12-04T19:01:23.766Z,10.27
2018-12-04T19:03:52.037Z,9.60
2018-12-04T19:06:20.329Z,7.40
2018-12-04T19:08:49.500Z,3.80
2018-12-04T19:11:17.804Z,4.20
2018-12-04T19:13:46.076Z,4.93
2018-12-04T19:16:14.383Z,5.27
2018-12-04T19:18:42.885Z,5.73
2018-12-04T19:21:11.175Z,8.00
2018-12-04T19:23:39.621Z,5.67
2018-12-04T19:26:07.921Z,7.37
2018-12-04T19:28:36.265Z,1.70
2018-12-04T19:31:04.547Z,2.63
2018-12-04T19:33:33.027Z,3.70
2018-12-04T19:36:01.379Z,3.57
2018-12-04T19:38:29.723Z,2.63
2018-12-04T19:40:58.038Z,3.20
2018-12-04T19:43:26.379Z,4.80
2018-12-04T19:45:54.740Z,7.60
2018-12-04T19:48:23.035Z,5.00
2018-12-04T19:50:54.168Z,5.80
2018-12-04T19:53:22.692Z,4.67
2018-12-04T19:55:51.000Z,5.50
2018-12-04T19:58:19.318Z,3.97
2018-12-04T20:00:47.689Z,6.43
2018-12-04T20:03:16.130Z,4.17
2018-12-04T20:05:44.619Z,5.70
2018-12-04T20:08:12.931Z,4.80
2018-12-04T20:10:41.256Z,7.00
2018-12-04T20:13:09.647Z,4.97
2018-12-04T20:15:37.994Z,8.27
2018-12-04T20:18:06.502Z,12.80
2018-12-04T20:20:34.853Z,19.27
2018-12-04T20:23:03.279Z,10.23
2018-12-04T20:25:31.634Z,14.70
2018-12-04T20:28:00.017Z,5.43
2018-12-04T20:30:28.634Z,5.33
2018-12-04T20:32:59.935Z,10.03
2018-12-04T20:35:27.404Z,29.87
2018-12-04T20:37:55.875Z,22.33
2018-12-04T20:40:31.343Z,8.17
2018-12-04T20:42:54.525Z,10.93
2018-12-04T20:45:24.077Z,14.70
2018-12-04T20:47:52.484Z,13.93
2018-12-04T20:50:20.937Z,8.70
2018-12-04T20:52:49.275Z,2.60
2018-12-04T20:55:17.590Z,4.93
2018-12-04T20:57:45.974Z,4.47
2018-12-04T21:00:14.312Z,2.10
2018-12-04T21:02:42.830Z,5.33
2018-12-04T21:05:11.121Z,4.63
2018-12-04T21:07:39.582Z,4.43
2018-12-04T21:10:07.980Z,7.17
2018-12-04T21:12:36.372Z,5.60
2018-12-04T21:15:05.367Z,5.30
2018-12-04T21:17:33.770Z,3.33
2018-12-04T21:20:02.081Z,3.47
2018-12-04T21:22:30.653Z,6.30
2018-12-04T21:24:59.842Z,6.07
2018-12-04T21:27:33.806Z,7.50
2018-12-04T21:30:07.655Z,5.30
2018-12-04T21:32:41.602Z,6.43
2018-12-04T21:35:15.460Z,8.47
2018-12-04T21:37:49.156Z,5.20
2018-12-04T21:40:22.942Z,6.93
2018-12-04T21:42:56.920Z,7.33
2018-12-04T21:45:30.695Z,5.50
2018-12-04T21:48:00.784Z,5.33
2018-12-04T21:50:29.067Z,2.97
2018-12-04T21:52:57.888Z,2.97
2018-12-04T21:55:26.475Z,4.17
2018-12-04T21:57:54.876Z,2.17
2018-12-04T22:00:23.194Z,7.47
2018-12-04T22:02:51.767Z,5.47
2018-12-04T22:05:20.120Z,3.53
2018-12-04T22:07:48.457Z,4.93
2018-12-04T22:10:16.789Z,5.27
2018-12-04T22:12:45.137Z,6.10
2018-12-04T22:15:13.922Z,8.60
2018-12-04T22:17:42.228Z,5.60
2018-12-04T22:20:10.641Z,10.60
2018-12-04T22:22:38.963Z,4.67
2018-12-04T22:25:07.297Z,4.60
2018-12-04T22:27:35.612Z,3.70
2018-12-04T22:30:05.512Z,5.10
2018-12-04T22:32:33.794Z,4.97
2018-12-04T22:35:02.301Z,6.10
2018-12-04T22:37:30.588Z,3.97
2018-12-04T22:39:58.904Z,5.60
2018-12-04T22:42:27.312Z,5.03
2018-12-04T22:44:57.400Z,9.80
2018-12-04T22:47:25.765Z,4.20
2018-12-04T22:49:54.089Z,4.47
2018-12-04T22:52:22.461Z,5.10
2018-12-04T22:54:50.784Z,4.47
2018-12-04T22:57:19.087Z,6.20
2018-12-04T22:59:47.443Z,6.23
2018-12-04T23:02:15.988Z,6.07
2018-12-04T23:04:44.468Z,6.70
2018-12-04T23:07:12.752Z,6.57
2018-12-04T23:09:41.206Z,4.77
2018-12-04T23:12:09.591Z,5.73
2018-12-04T23:14:37.911Z,3.80
2018-12-04T23:17:06.350Z,2.43
2018-12-04T23:19:34.722Z,4.00
2018-12-04T23:22:03.094Z,3.53
2018-12-04T23:24:31.399Z,5.23
2018-12-04T23:26:59.752Z,5.37
2018-12-04T23:29:28.105Z,6.23
2018-12-04T23:31:56.384Z,3.80
2018-12-04T23:34:24.780Z,3.67
2018-12-04T23:36:53.148Z,6.80
2018-12-04T23:39:21.482Z,7.20
2018-12-04T23:41:49.812Z,5.37
2018-12-04T23:44:18.114Z,5.73
2018-12-04T23:46:46.512Z,5.73
2018-12-04T23:49:14.814Z,6.70
2018-12-04T23:51:43.093Z,5.23
2018-12-04T23:54:11.447Z,4.47
2018-12-04T23:56:39.757Z,6.03
2018-12-04T23:59:08.068Z,4.53
